Time;durP1;ratioP1;P1;durP2;ratioP2;P2;SDS_P1;SDS_P2;PMS_P1;PMS_P2;Temp;Humidity;BMP_temperature;BMP_pressure;BME280_temperature;BME280_humidity;BME280_pressure;Samples;Min_cycle;Max_cycle;Signal;HPM_P1;HPM_P2
2022/07/09 00:00:06;;;;;;;5.97;1.87;;;13.50;99.90;13.50;101522.00;;;;4875278;28;93008;-59
2022/07/09 00:02:34;;;;;;;1.73;1.30;;;13.50;99.90;13.50;101524.00;;;;4874454;28;96344;-60
2022/07/09 00:05:00;;;;;;;1.57;1.30;;;13.50;99.90;13.50;101520.00;;;;4875007;28;91933;-59
2022/07/09 00:07:26;;;;;;;1.27;1.17;;;13.40;99.90;13.40;101526.00;;;;4873920;28;112639;-58
2022/07/09 00:09:52;;;;;;;2.57;1.70;;;13.40;99.90;13.40;101520.00;;;;4875124;28;92741;-59
2022/07/09 00:12:18;;;;;;;1.10;1.00;;;13.40;99.90;13.40;101525.00;;;;4874746;28;94026;-59
2022/07/09 00:14:44;;;;;;;3.83;1.63;;;13.40;99.90;13.30;101529.00;;;;4874725;28;93267;-59
2022/07/09 00:17:09;;;;;;;1.33;1.23;;;13.30;99.90;13.30;101521.00;;;;4874415;28;109782;-58
2022/07/09 00:19:35;;;;;;;3.03;1.77;;;13.30;99.90;13.30;101516.00;;;;4874020;28;110149;-59
2022/07/09 00:22:02;;;;;;;2.00;1.70;;;13.30;99.90;13.30;101519.00;;;;4876713;28;92656;-58
2022/07/09 00:24:27;;;;;;;1.93;1.23;;;13.20;99.90;13.20;101512.00;;;;4893559;28;94042;-58
2022/07/09 00:26:53;;;;;;;3.20;1.87;;;13.20;99.90;13.20;101502.00;;;;4893408;28;113992;-57
2022/07/09 00:29:19;;;;;;;2.00;1.90;;;13.10;99.90;13.10;101505.00;;;;4891543;28;110637;-59
2022/07/09 00:31:45;;;;;;;1.67;1.20;;;13.10;99.90;13.10;101511.00;;;;4893464;28;107795;-59
2022/07/09 00:34:12;;;;;;;7.17;2.13;;;13.10;99.90;13.10;101493.00;;;;4893579;28;93782;-58
2022/07/09 00:36:38;;;;;;;1.83;1.43;;;13.10;99.90;13.00;101499.00;;;;4893500;28;94072;-58
2022/07/09 00:39:04;;;;;;;2.33;1.83;;;13.00;99.90;13.00;101498.00;;;;4892096;28;107137;-58
2022/07/09 00:41:30;;;;;;;1.77;1.57;;;13.00;99.90;13.00;101495.00;;;;4897357;28;93357;-59
2022/07/09 00:43:56;;;;;;;1.80;1.50;;;12.90;99.90;13.00;101496.00;;;;4897568;28;93474;-58
2022/07/09 00:46:21;;;;;;;1.57;1.47;;;12.90;99.90;12.90;101499.00;;;;4895696;28;123435;-60
2022/07/09 00:48:47;;;;;;;2.30;2.10;;;12.90;99.90;12.90;101490.00;;;;4897806;28;92692;-58
2022/07/09 00:51:17;;;;;;;2.83;1.77;;;12.90;99.90;12.80;101490.00;;;;4896873;28;92988;-59
2022/07/09 00:53:44;;;;;;;1.70;1.53;;;12.80;99.90;12.80;101489.00;;;;4896349;28;111656;-57
2022/07/09 00:56:11;;;;;;;1.77;1.67;;;12.80;99.90;12.80;101486.00;;;;4896465;28;93118;-58
2022/07/09 00:58:38;;;;;;;1.23;1.13;;;12.80;99.90;12.80;101484.00;;;;4897118;28;92909;-59
2022/07/09 01:01:06;;;;;;;1.67;1.57;;;12.70;99.90;12.80;101481.00;;;;4893806;28;108183;-59
2022/07/09 01:03:31;;;;;;;1.87;1.33;;;12.70;99.90;12.70;101483.00;;;;4873179;28;93670;-59
2022/07/09 01:05:58;;;;;;;1.83;1.50;;;12.70;99.90;12.70;101487.00;;;;4874416;28;122979;-59
2022/07/09 01:08:25;;;;;;;3.13;1.90;;;12.70;99.90;12.70;101480.00;;;;4878224;28;92886;-60
2022/07/09 01:10:53;;;;;;;1.70;1.47;;;12.70;99.90;12.80;101478.00;;;;4889411;28;92834;-60
2022/07/09 01:13:19;;;;;;;1.90;1.80;;;12.70;99.90;12.80;101471.00;;;;4895664;28;123197;-59
2022/07/09 01:15:44;;;;;;;4.73;1.90;;;12.70;99.90;12.80;101465.00;;;;4897156;28;93134;-59
2022/07/09 01:18:12;;;;;;;3.57;2.20;;;12.80;99.90;12.80;101466.00;;;;4896059;28;108609;-60
2022/07/09 01:20:37;;;;;;;3.97;2.13;;;12.80;99.90;12.80;101458.00;;;;4885164;28;93439;-60
2022/07/09 01:23:03;;;;;;;2.13;1.93;;;12.80;99.90;12.90;101464.00;;;;4876518;28;113350;-58
2022/07/09 01:25:36;;;;;;;2.50;1.90;;;12.80;99.90;12.90;101455.00;;;;4875909;28;123903;-60
2022/07/09 01:28:05;;;;;;;2.00;1.67;;;12.90;99.90;12.90;101457.00;;;;4877642;28;92837;-61
2022/07/09 01:30:33;;;;;;;2.87;2.10;;;12.80;99.90;12.90;101457.00;;;;4877032;28;92846;-61
2022/07/09 01:32:59;;;;;;;4.60;2.20;;;12.90;99.90;12.90;101445.00;;;;4874784;28;93501;-60
2022/07/09 01:35:26;;;;;;;2.30;2.10;;;12.90;99.90;12.90;101447.00;;;;4888925;28;93571;-60
2022/07/09 01:37:52;;;;;;;2.37;1.50;;;12.80;99.90;12.90;101451.00;;;;4897219;28;92863;-60
2022/07/09 01:40:19;;;;;;;2.83;1.90;;;12.90;99.90;12.90;101442.00;;;;4896147;28;92813;-60
2022/07/09 01:42:45;;;;;;;3.13;1.97;;;12.80;99.90;12.90;101436.00;;;;4896613;28;92118;-60
2022/07/09 01:45:11;;;;;;;4.13;1.80;;;12.80;99.90;12.80;101435.00;;;;4895131;28;115231;-60
2022/07/09 01:47:37;;;;;;;2.00;1.90;;;12.80;99.90;12.80;101433.00;;;;4896225;28;96912;-60
2022/07/09 01:50:04;;;;;;;2.43;1.87;;;12.80;99.90;12.80;101434.00;;;;4896430;28;93867;-60
2022/07/09 01:52:30;;;;;;;2.43;1.93;;;12.80;99.90;12.80;101434.00;;;;4894919;28;93808;-59
2022/07/09 01:54:56;;;;;;;4.53;2.23;;;12.70;99.90;12.70;101425.00;;;;4895491;28;93192;-60
2022/07/09 01:57:22;;;;;;;1.87;1.77;;;12.70;99.90;12.70;101418.00;;;;4879011;28;93074;-60
2022/07/09 01:59:47;;;;;;;2.67;1.93;;;12.70;99.90;12.70;101431.00;;;;4896223;28;93066;-59
2022/07/09 02:02:13;;;;;;;3.37;2.67;;;12.70;99.90;12.70;101434.00;;;;4896035;28;93646;-60
2022/07/09 02:04:39;;;;;;;3.00;2.70;;;12.70;99.90;12.70;101413.00;;;;4894857;28;121855;-60
2022/07/09 02:07:04;;;;;;;8.60;1.90;;;12.60;99.90;12.60;101418.00;;;;4895687;28;110682;-60
2022/07/09 02:09:30;;;;;;;5.03;2.93;;;12.70;99.90;12.60;101418.00;;;;4895087;28;108877;-60
2022/07/09 02:11:56;;;;;;;5.07;2.67;;;12.60;99.90;12.60;101414.00;;;;4895713;28;101584;-60
2022/07/09 02:14:22;;;;;;;3.63;2.70;;;12.60;99.90;12.60;101417.00;;;;4894910;28;93758;-61
2022/07/09 02:16:48;;;;;;;2.87;2.10;;;12.50;99.90;12.50;101423.00;;;;4895577;28;110124;-61
2022/07/09 02:19:14;;;;;;;2.20;2.03;;;12.50;99.90;12.50;101418.00;;;;4895388;28;92849;-60
2022/07/09 02:21:40;;;;;;;3.90;2.00;;;12.50;99.90;12.50;101424.00;;;;4896367;28;94288;-60
2022/07/09 02:24:07;;;;;;;5.30;2.67;;;12.50;99.90;12.40;101419.00;;;;4895439;28;123538;-60
2022/07/09 02:26:33;;;;;;;6.97;2.63;;;12.40;99.90;12.40;101416.00;;;;4896347;28;92958;-60
2022/07/09 02:29:01;;;;;;;2.27;2.07;;;12.40;99.90;12.40;101423.00;;;;4896583;28;93119;-60
2022/07/09 02:31:26;;;;;;;2.23;2.03;;;12.40;99.90;12.30;101411.00;;;;4877045;28;93061;-60
2022/07/09 02:33:53;;;;;;;3.83;2.67;;;12.30;99.90;12.30;101407.00;;;;4873488;28;118828;-60
2022/07/09 02:36:19;;;;;;;4.27;2.23;;;12.30;99.90;12.30;101411.00;;;;4874901;28;110681;-60
2022/07/09 02:38:45;;;;;;;3.00;2.40;;;12.30;99.90;12.20;101409.00;;;;4875098;28;109550;-59
2022/07/09 02:41:11;;;;;;;3.00;2.03;;;12.20;99.90;12.20;101414.00;;;;4893120;28;95430;-60
2022/07/09 02:43:38;;;;;;;3.00;2.70;;;12.20;99.90;12.20;101417.00;;;;4895450;28;93460;-60
2022/07/09 02:46:04;;;;;;;3.13;1.43;;;12.20;99.90;12.20;101412.00;;;;4895541;28;92718;-60
2022/07/09 02:48:31;;;;;;;3.13;2.83;;;12.20;99.90;12.20;101412.00;;;;4895316;28;93231;-61
2022/07/09 02:50:57;;;;;;;2.97;2.37;;;12.20;99.90;12.10;101410.00;;;;4895529;28;93667;-59
2022/07/09 02:53:22;;;;;;;2.47;1.60;;;12.10;99.90;12.10;101414.00;;;;4894108;28;121791;-60
2022/07/09 02:55:48;;;;;;;2.60;2.00;;;12.10;99.90;12.10;101424.00;;;;4876752;28;111383;-60
2022/07/09 02:58:14;;;;;;;4.27;3.00;;;12.10;99.90;12.10;101411.00;;;;4894895;28;108977;-60
2022/07/09 03:00:40;;;;;;;2.83;2.33;;;12.10;99.90;12.10;101419.00;;;;4895249;28;93080;-59
2022/07/09 03:03:07;;;;;;;3.10;2.83;;;12.10;99.90;12.10;101421.00;;;;4893554;28;121546;-60
2022/07/09 03:05:34;;;;;;;4.67;2.83;;;12.10;99.90;12.00;101417.00;;;;4895616;28;92809;-60
2022/07/09 03:08:00;;;;;;;2.60;2.40;;;12.00;99.90;12.00;101425.00;;;;4895634;28;100466;-57
2022/07/09 03:10:27;;;;;;;2.03;1.50;;;12.00;99.90;12.00;101425.00;;;;4893839;28;94194;-60
2022/07/09 03:12:53;;;;;;;2.53;2.33;;;12.00;99.90;12.00;101420.00;;;;4894875;28;93549;-60
2022/07/09 03:15:19;;;;;;;2.63;2.43;;;12.00;99.90;12.00;101412.00;;;;4895205;28;92836;-60
2022/07/09 03:17:47;;;;;;;4.43;2.30;;;12.00;99.90;12.00;101413.00;;;;4894425;28;108967;-60
2022/07/09 03:20:14;;;;;;;10.40;3.00;;;12.00;99.90;12.00;101409.00;;;;4894870;28;92704;-59
2022/07/09 03:22:40;;;;;;;3.20;2.90;;;12.00;99.90;12.00;101403.00;;;;4895323;28;94747;-59
2022/07/09 03:25:07;;;;;;;2.43;2.23;;;12.00;99.90;12.00;101402.00;;;;4877298;28;92935;-59
2022/07/09 03:27:34;;;;;;;2.20;2.03;;;12.00;99.90;12.00;101409.00;;;;4894744;28;93857;-60
2022/07/09 03:30:00;;;;;;;3.50;2.77;;;12.00;99.90;12.00;101401.00;;;;4893698;28;112299;-60
2022/07/09 03:32:26;;;;;;;2.00;1.80;;;12.00;99.90;12.00;101410.00;;;;4894167;28;122032;-60
2022/07/09 03:34:52;;;;;;;2.97;2.33;;;12.00;99.90;12.00;101405.00;;;;4873854;28;92794;-60
2022/07/09 03:37:21;;;;;;;3.90;2.97;;;12.00;99.90;12.00;101401.00;;;;4876153;28;92617;-60
2022/07/09 03:39:47;;;;;;;4.80;3.47;;;12.00;99.90;12.00;101407.00;;;;4874470;28;115636;-60
2022/07/09 03:42:13;;;;;;;2.87;2.47;;;12.00;99.90;12.10;101408.00;;;;4874572;28;122486;-60
2022/07/09 03:44:39;;;;;;;3.70;2.53;;;12.00;99.90;12.10;101405.00;;;;4875840;28;92032;-60
2022/07/09 03:47:06;;;;;;;3.13;2.80;;;12.00;99.90;12.10;101411.00;;;;4875828;28;99550;-60
2022/07/09 03:49:32;;;;;;;5.70;3.43;;;12.00;99.90;12.10;101401.00;;;;4875221;28;92891;-60
2022/07/09 03:51:58;;;;;;;4.03;3.50;;;12.10;99.90;12.10;101411.00;;;;4875055;28;94045;-60
2022/07/09 03:54:24;;;;;;;4.67;3.90;;;12.10;99.90;12.10;101404.00;;;;4874789;28;110022;-58
2022/07/09 03:56:50;;;;;;;7.23;2.93;;;12.10;99.90;12.20;101403.00;;;;4874795;28;108562;-59
2022/07/09 03:59:16;;;;;;;4.40;3.43;;;12.10;99.90;12.20;101407.00;;;;4875009;28;93162;-59
2022/07/09 04:01:43;;;;;;;5.33;3.00;;;12.10;99.90;12.30;101407.00;;;;4873585;28;123226;-59
2022/07/09 04:04:08;;;;;;;3.50;2.87;;;12.20;99.90;12.30;101407.00;;;;4875194;28;92778;-58
2022/07/09 04:06:34;;;;;;;4.50;3.07;;;12.20;99.90;12.40;101406.00;;;;4874886;28;109295;-58
2022/07/09 04:09:04;;;;;;;4.73;3.60;;;12.30;99.90;12.50;101411.00;;;;4874570;28;93162;-58
2022/07/09 04:11:31;;;;;;;4.90;4.13;;;12.40;99.90;12.60;101404.00;;;;4873844;28;92823;-58
2022/07/09 04:13:58;;;;;;;4.07;3.43;;;12.50;99.90;12.70;101418.00;;;;4875570;28;93011;-57
2022/07/09 04:16:24;;;;;;;7.93;3.90;;;12.60;99.90;12.80;101411.00;;;;4878439;28;93939;-57
2022/07/09 04:18:50;;;;;;;4.50;3.10;;;12.70;99.90;12.90;101407.00;;;;4878572;28;102031;-58
2022/07/09 04:21:16;;;;;;;2.93;2.67;;;12.80;99.90;13.00;101411.00;;;;4877320;28;121444;-58
2022/07/09 04:23:42;;;;;;;4.97;4.17;;;12.90;99.90;13.00;101408.00;;;;4878558;28;92882;-57
2022/07/09 04:26:09;;;;;;;3.53;3.23;;;13.00;99.90;13.10;101420.00;;;;4877864;28;108283;-58
2022/07/09 04:28:36;;;;;;;3.47;2.60;;;13.00;99.90;13.20;101412.00;;;;4877948;28;93803;-58
2022/07/09 04:31:02;;;;;;;4.07;3.07;;;13.10;99.90;13.30;101423.00;;;;4877382;28;93386;-57
2022/07/09 04:33:28;;;;;;;3.07;2.73;;;13.20;99.90;13.30;101425.00;;;;4878333;28;92250;-58
2022/07/09 04:35:53;;;;;;;3.57;3.07;;;13.30;99.90;13.40;101429.00;;;;4894334;28;92957;-59
2022/07/09 04:38:19;;;;;;;5.83;2.53;;;13.30;99.90;13.50;101432.00;;;;4896809;28;93338;-59
2022/07/09 04:40:45;;;;;;;3.83;2.37;;;13.40;99.90;13.60;101426.00;;;;4896924;28;94021;-57
2022/07/09 04:43:10;;;;;;;4.37;3.03;;;13.50;99.90;13.70;101425.00;;;;4895868;28;111783;-57
2022/07/09 04:45:36;;;;;;;3.20;2.50;;;13.60;99.90;13.80;101435.00;;;;4896236;28;100395;-59
2022/07/09 04:48:02;;;;;;;2.80;2.07;;;13.70;99.90;13.90;101437.00;;;;4895646;28;122490;-59
2022/07/09 04:50:28;;;;;;;3.50;2.83;;;13.80;99.90;14.00;101433.00;;;;4896595;28;93762;-57
2022/07/09 04:52:54;;;;;;;3.13;2.40;;;13.90;99.90;14.10;101432.00;;;;4895739;28;109472;-59
2022/07/09 04:55:21;;;;;;;2.67;2.47;;;14.00;99.90;14.30;101437.00;;;;4896710;28;92783;-59
2022/07/09 04:57:47;;;;;;;6.67;2.20;;;14.20;99.90;14.40;101436.00;;;;4896605;28;93122;-60
2022/07/09 05:00:15;;;;;;;2.30;2.10;;;14.30;99.90;14.60;101438.00;;;;4895593;28;104630;-59
2022/07/09 05:02:44;;;;;;;2.57;2.17;;;14.50;99.90;14.60;101444.00;;;;4896193;28;92972;-59
2022/07/09 05:05:11;;;;;;;3.10;2.07;;;14.60;99.90;14.70;101436.00;;;;4896041;28;95020;-58
2022/07/09 05:07:36;;;;;;;9.00;2.30;;;14.60;99.90;14.80;101443.00;;;;4896380;28;94160;-59
2022/07/09 05:10:03;;;;;;;2.10;1.87;;;14.70;99.90;14.90;101443.00;;;;4895520;28;93953;-59
2022/07/09 05:12:30;;;;;;;2.23;2.07;;;14.80;99.90;15.10;101446.00;;;;4896249;28;92875;-60
2022/07/09 05:14:56;;;;;;;2.63;2.07;;;15.00;99.90;15.20;101443.00;;;;4896367;28;92871;-59
2022/07/09 05:17:23;;;;;;;2.00;1.47;;;15.10;99.90;15.30;101438.00;;;;4895725;28;105411;-59
2022/07/09 05:19:49;;;;;;;2.78;1.85;;;15.20;99.90;15.50;101439.00;;;;4896050;28;103251;-59
2022/07/09 05:22:15;;;;;;;3.17;1.55;;;15.30;99.90;15.80;101439.00;;;;4894800;28;104322;-58
2022/07/09 05:24:42;;;;;;;1.60;1.50;;;15.50;99.90;16.00;101432.00;;;;4895583;28;109048;-58
2022/07/09 05:27:09;;;;;;;3.00;1.77;;;15.80;99.90;16.30;101433.00;;;;4877777;28;92876;-58
2022/07/09 05:29:37;;;;;;;1.52;1.42;;;16.00;99.90;16.40;101428.00;;;;4894545;28;93726;-59
2022/07/09 05:32:04;;;;;;;11.75;1.55;;;16.30;99.90;16.60;101422.00;;;;4895568;28;92924;-60
2022/07/09 05:34:30;;;;;;;2.25;1.58;;;16.40;99.90;16.80;101421.00;;;;4896261;28;92547;-59
2022/07/09 05:36:56;;;;;;;2.22;1.58;;;16.60;99.90;16.80;101425.00;;;;4895030;28;123000;-60
2022/07/09 05:39:22;;;;;;;1.85;1.35;;;16.70;99.90;16.90;101432.00;;;;4894884;28;93337;-58
2022/07/09 05:41:48;;;;;;;1.83;1.23;;;16.80;99.90;16.90;101435.00;;;;4895955;28;96729;-58
2022/07/09 05:44:14;;;;;;;3.70;1.63;;;16.80;99.90;16.90;101434.00;;;;4895411;28;96882;-60
2022/07/09 05:46:40;;;;;;;2.10;1.65;;;16.80;99.90;16.90;101423.00;;;;4896278;28;92135;-59
2022/07/09 05:49:06;;;;;;;2.50;1.80;;;16.80;99.90;17.00;101420.00;;;;4895160;28;107178;-59
2022/07/09 05:51:32;;;;;;;1.83;1.45;;;16.80;99.90;17.00;101424.00;;;;4896298;28;92880;-58
2022/07/09 05:53:58;;;;;;;1.50;1.13;;;16.80;99.90;17.00;101424.00;;;;4895528;28;94044;-60
2022/07/09 05:56:24;;;;;;;4.13;1.77;;;16.90;99.90;17.10;101422.00;;;;4895985;28;94730;-59
2022/07/09 05:58:50;;;;;;;1.70;1.48;;;16.90;99.90;17.10;101421.00;;;;4895314;28;110473;-59
2022/07/09 06:01:15;;;;;;;2.03;1.48;;;17.00;99.90;17.10;101423.00;;;;4895669;28;92859;-59
2022/07/09 06:03:42;;;;;;;2.30;1.42;;;17.00;99.90;17.10;101427.00;;;;4894416;28;109128;-59
2022/07/09 06:06:09;;;;;;;1.83;1.58;;;17.00;99.90;17.10;101430.00;;;;4876414;28;93351;-59
2022/07/09 06:08:35;;;;;;;2.00;1.30;;;17.00;99.90;17.10;101433.00;;;;4890605;28;106706;-59
2022/07/09 06:11:01;;;;;;;2.45;1.20;;;17.00;99.90;17.10;101434.00;;;;4893096;28;92189;-59
2022/07/09 06:13:27;;;;;;;2.47;1.83;;;17.00;99.90;17.20;101434.00;;;;4891121;28;100548;-59
2022/07/09 06:15:53;;;;;;;2.42;2.22;;;17.00;99.90;17.20;101431.00;;;;4892253;28;93464;-59
2022/07/09 06:18:18;;;;;;;1.58;1.38;;;17.10;99.90;17.20;101438.00;;;;4890102;28;112636;-56
2022/07/09 06:20:45;;;;;;;1.92;1.50;;;17.10;99.90;17.20;101436.00;;;;4891565;28;102601;-59
2022/07/09 06:23:11;;;;;;;2.50;1.80;;;17.00;99.90;17.10;101434.00;;;;4891570;28;93199;-59
2022/07/09 06:25:38;;;;;;;2.72;1.77;;;17.00;99.90;17.10;101434.00;;;;4891179;28;94142;-59
2022/07/09 06:28:04;;;;;;;2.65;1.70;;;17.00;99.90;17.10;101452.00;;;;4891514;28;92912;-58
2022/07/09 06:30:30;;;;;;;2.03;1.88;;;17.00;99.90;17.10;101449.00;;;;4890919;28;92865;-60
2022/07/09 06:32:56;;;;;;;2.75;1.98;;;17.00;99.90;17.20;101453.00;;;;4895465;28;93269;-58
2022/07/09 06:35:22;;;;;;;2.92;1.60;;;17.00;99.90;17.10;101452.00;;;;4887438;28;114055;-59
2022/07/09 06:37:48;;;;;;;2.55;1.80;;;17.00;99.90;17.10;101457.00;;;;4889209;28;92911;-58
2022/07/09 06:40:14;;;;;;;3.45;1.77;;;17.00;99.90;17.00;101456.00;;;;4886259;28;110596;-59
2022/07/09 06:42:40;;;;;;;1.77;1.25;;;17.00;99.90;17.00;101454.00;;;;4888605;28;97873;-60
2022/07/09 06:45:07;;;;;;;1.40;1.30;;;16.80;99.90;16.90;101456.00;;;;4888983;28;110692;-59
2022/07/09 06:47:33;;;;;;;1.38;1.25;;;16.80;99.90;16.80;101457.00;;;;4889348;28;93018;-60
2022/07/09 06:49:59;;;;;;;1.48;1.25;;;16.80;99.90;16.70;101453.00;;;;4890424;28;101029;-58
2022/07/09 06:52:25;;;;;;;2.58;1.20;;;16.60;99.90;16.70;101461.00;;;;4890306;28;92909;-60
2022/07/09 06:54:50;;;;;;;2.03;1.10;;;16.60;99.90;16.70;101453.00;;;;4891196;28;123019;-60
2022/07/09 06:57:17;;;;;;;1.98;1.40;;;16.70;99.90;16.70;101446.00;;;;4890727;28;105227;-60
2022/07/09 06:59:45;;;;;;;1.58;1.48;;;16.60;99.90;16.80;101446.00;;;;4891931;28;92970;-60
2022/07/09 07:02:17;;;;;;;1.15;1.05;;;16.60;99.90;16.80;101443.00;;;;4891191;28;92930;-60
2022/07/09 07:04:43;;;;;;;1.95;1.60;;;16.60;99.90;16.80;101450.00;;;;4890775;28;94252;-60
2022/07/09 07:07:09;;;;;;;1.10;0.95;;;16.70;99.90;16.90;101449.00;;;;4889591;28;105674;-59
2022/07/09 07:09:34;;;;;;;1.75;1.40;;;16.70;99.90;16.90;101451.00;;;;4890532;28;109054;-60
2022/07/09 07:12:00;;;;;;;1.20;1.10;;;16.70;99.90;16.90;101447.00;;;;4889786;28;109168;-59
2022/07/09 07:14:26;;;;;;;1.65;1.38;;;16.80;99.90;17.00;101450.00;;;;4872307;28;106405;-61
2022/07/09 07:16:53;;;;;;;3.78;1.48;;;16.80;99.90;17.00;101443.00;;;;4890708;28;93693;-60
2022/07/09 07:19:20;;;;;;;1.00;1.00;;;16.90;99.90;17.00;101451.00;;;;4891034;28;92995;-59
2022/07/09 07:21:47;;;;;;;2.20;1.02;;;16.90;99.90;17.00;101436.00;;;;4890576;28;92834;-60
2022/07/09 07:24:13;;;;;;;2.28;1.52;;;16.90;99.90;17.00;101438.00;;;;4889914;28;105974;-61
2022/07/09 07:26:39;;;;;;;2.35;1.00;;;16.90;99.90;16.90;101440.00;;;;4889673;28;120675;-60
2022/07/09 07:29:05;;;;;;;2.00;1.23;;;16.80;99.90;16.90;101443.00;;;;4889801;28;111659;-61
2022/07/09 07:31:31;;;;;;;0.80;0.80;;;16.80;99.90;17.00;101444.00;;;;4889717;28;107470;-60
2022/07/09 07:33:57;;;;;;;1.65;1.55;;;16.80;99.90;17.00;101431.00;;;;4890721;28;93681;-61
2022/07/09 07:36:23;;;;;;;1.08;0.98;;;16.90;99.90;17.10;101438.00;;;;4889445;28;113459;-60
2022/07/09 07:38:49;;;;;;;2.78;1.27;;;16.90;99.90;17.20;101424.00;;;;4872772;28;97839;-60
2022/07/09 07:41:16;;;;;;;5.68;1.65;;;17.00;99.90;17.30;101427.00;;;;4890802;28;93291;-60
2022/07/09 07:43:42;;;;;;;3.13;1.40;;;17.10;99.90;17.30;101428.00;;;;4890307;28;94376;-61
2022/07/09 07:46:08;;;;;;;3.33;1.75;;;17.20;99.90;17.40;101425.00;;;;4890256;28;93631;-60
2022/07/09 07:48:35;;;;;;;5.57;1.35;;;17.20;99.90;17.50;101418.00;;;;4889028;28;109836;-60
2022/07/09 07:51:02;;;;;;;1.30;1.17;;;17.30;99.90;17.60;101419.00;;;;4872017;28;93053;-61
2022/07/09 07:53:31;;;;;;;1.55;1.20;;;17.40;99.90;17.80;101418.00;;;;4890112;28;92997;-61
2022/07/09 07:55:57;;;;;;;1.08;1.00;;;17.60;99.90;18.00;101417.00;;;;4889491;28;93859;-59
2022/07/09 07:58:22;;;;;;;1.85;1.48;;;17.80;99.90;18.20;101410.00;;;;4888683;28;111201;-61
2022/07/09 08:00:48;;;;;;;2.20;1.15;;;17.90;99.90;18.40;101406.00;;;;4889793;28;109376;-60
2022/07/09 08:03:13;;;;;;;2.08;1.48;;;18.10;99.90;18.60;101417.00;;;;4888326;28;121744;-61
2022/07/09 08:05:39;;;;;;;4.43;1.13;;;18.30;99.90;18.80;101411.00;;;;4889560;28;93933;-60
2022/07/09 08:08:05;;;;;;;1.17;1.08;;;18.50;99.90;18.90;101412.00;;;;4890325;28;92881;-60
2022/07/09 08:10:31;;;;;;;1.40;1.20;;;18.60;99.90;19.00;101401.00;;;;4889088;28;107847;-60
2022/07/09 08:12:56;;;;;;;3.95;1.42;;;18.70;99.90;19.10;101405.00;;;;4888920;28;120644;-60
2022/07/09 08:15:22;;;;;;;1.75;1.08;;;18.80;99.90;19.10;101415.00;;;;4889612;28;92940;-60
2022/07/09 08:17:48;;;;;;;1.48;1.35;;;18.90;99.90;19.20;101411.00;;;;4889649;28;108694;-60
2022/07/09 08:20:13;;;;;;;1.25;1.15;;;19.00;99.90;19.40;101396.00;;;;4888617;28;106970;-59
2022/07/09 08:22:39;;;;;;;1.85;1.35;;;19.10;99.90;19.50;101397.00;;;;4888801;28;122997;-58
2022/07/09 08:25:05;;;;;;;4.30;0.80;;;19.30;99.90;19.70;101400.00;;;;4890182;28;93776;-60
2022/07/09 08:27:31;;;;;;;4.85;1.42;;;19.50;99.90;19.90;101393.00;;;;4890296;28;92906;-60
2022/07/09 08:29:57;;;;;;;1.67;1.23;;;19.70;99.80;20.30;101391.00;;;;4890428;28;92967;-60
2022/07/09 08:32:22;;;;;;;0.80;0.77;;;19.90;99.50;20.60;101401.00;;;;4888743;28;121939;-60
2022/07/09 08:34:48;;;;;;;1.85;1.70;;;20.30;99.00;20.80;101412.00;;;;4888695;28;104814;-60
2022/07/09 08:37:14;;;;;;;1.20;1.10;;;20.50;97.60;20.90;101403.00;;;;4889871;28;110451;-60
2022/07/09 08:39:39;;;;;;;1.88;1.15;;;20.60;96.80;21.00;101402.00;;;;4889309;28;108542;-60
2022/07/09 08:42:12;;;;;;;2.05;1.23;;;20.70;96.60;21.00;101400.00;;;;4887839;28;121357;-59
2022/07/09 08:44:42;;;;;;;3.85;0.90;;;20.80;95.90;21.00;101405.00;;;;4887107;28;93845;-60
2022/07/09 08:47:14;;;;;;;2.55;1.48;;;20.80;95.40;21.10;101407.00;;;;4872168;28;93096;-59
2022/07/09 08:49:42;;;;;;;3.40;1.80;;;20.90;95.40;21.10;101395.00;;;;4871593;28;93259;-60
2022/07/09 08:52:08;;;;;;;1.48;1.23;;;20.90;94.30;21.10;101399.00;;;;4889842;28;93217;-59
2022/07/09 08:54:39;;;;;;;2.60;1.70;;;20.90;94.10;21.10;101388.00;;;;4871468;28;94285;-60
2022/07/09 08:57:06;;;;;;;2.42;1.20;;;20.90;94.30;21.00;101384.00;;;;4871675;28;92977;-60
2022/07/09 08:59:32;;;;;;;1.83;1.33;;;20.90;93.80;21.00;101393.00;;;;4872682;28;93266;-60
2022/07/09 09:02:09;;;;;;;1.25;1.10;;;20.80;93.20;21.00;101391.00;;;;4892860;28;93089;-60
2022/07/09 09:04:39;;;;;;;3.58;1.60;;;20.80;93.20;21.10;101379.00;;;;4892214;28;92864;-61
2022/07/09 09:07:19;;;;;;;0.77;0.77;;;20.90;93.20;21.30;101386.00;;;;4894498;28;93121;-60
2022/07/09 09:09:45;;;;;;;1.33;1.23;;;21.00;93.10;21.50;101384.00;;;;4892816;28;93782;-60
2022/07/09 09:12:13;;;;;;;1.98;0.85;;;21.10;92.90;21.70;101385.00;;;;4891873;28;98567;-61
2022/07/09 09:14:38;;;;;;;1.60;1.17;;;21.40;92.60;21.90;101386.00;;;;4892002;28;93768;-61
2022/07/09 09:17:11;;;;;;;1.33;1.05;;;21.60;91.80;22.20;101368.00;;;;4893202;28;92773;-61
2022/07/09 09:19:38;;;;;;;1.70;1.40;;;21.80;92.00;22.60;101385.00;;;;4893096;28;93002;-60
2022/07/09 09:22:05;;;;;;;3.88;1.58;;;22.20;91.70;22.90;101390.00;;;;4892315;28;93781;-61
2022/07/09 09:24:31;;;;;;;2.53;1.05;;;22.50;90.00;23.00;101392.00;;;;4874082;28;93140;-60
2022/07/09 09:27:01;;;;;;;1.75;0.93;;;22.70;87.20;22.90;101397.00;;;;4893281;28;92000;-61
2022/07/09 09:29:28;;;;;;;0.85;0.80;;;22.60;85.60;22.70;101386.00;;;;4893345;28;92945;-61
2022/07/09 09:31:55;;;;;;;5.57;2.42;;;22.50;85.30;22.60;101390.00;;;;4893172;28;99775;-61
2022/07/09 09:34:22;;;;;;;1.30;1.15;;;22.50;85.70;22.50;101381.00;;;;4890819;28;94404;-62
2022/07/09 09:36:54;;;;;;;2.38;1.20;;;22.40;85.10;22.40;101385.00;;;;4892925;28;92826;-61
2022/07/09 09:39:31;;;;;;;1.42;1.33;;;22.30;85.40;22.40;101372.00;;;;4893282;28;92880;-61
2022/07/09 09:42:03;;;;;;;1.00;0.90;;;22.20;85.80;22.50;101372.00;;;;4893153;28;93509;-61
2022/07/09 09:44:40;;;;;;;2.13;1.30;;;22.30;85.20;22.50;101376.00;;;;4891879;28;92898;-61
2022/07/09 09:47:07;;;;;;;1.25;0.75;;;22.30;85.00;22.60;101379.00;;;;4892074;28;92890;-62
2022/07/09 09:49:40;;;;;;;3.50;1.38;;;22.30;85.30;22.60;101380.00;;;;4892234;28;92793;-61
2022/07/09 09:52:10;;;;;;;5.20;1.08;;;22.30;85.50;22.50;101385.00;;;;4893029;28;93125;-61
2022/07/09 09:54:40;;;;;;;1.45;1.20;;;22.30;85.00;22.40;101381.00;;;;4891756;28;93040;-61
2022/07/09 09:57:10;;;;;;;0.68;0.68;;;22.30;85.10;22.30;101375.00;;;;4892819;28;92813;-61
2022/07/09 09:59:38;;;;;;;1.98;1.10;;;22.20;85.10;22.20;101380.00;;;;4891778;28;93664;-60
2022/07/09 10:02:09;;;;;;;1.27;0.88;;;22.00;85.40;22.10;101377.00;;;;4891692;28;93584;-60
2022/07/09 10:04:44;;;;;;;0.77;0.75;;;21.90;86.00;21.90;101377.00;;;;4891699;28;93265;-61
2022/07/09 10:07:20;;;;;;;3.97;1.38;;;21.70;85.80;21.70;101373.00;;;;4892327;28;93560;-61
2022/07/09 10:09:57;;;;;;;2.20;1.25;;;21.60;86.10;21.60;101371.00;;;;4874584;28;93137;-61
2022/07/09 10:12:33;;;;;;;1.40;1.08;;;21.50;87.50;21.60;101363.00;;;;4890771;28;93221;-61
2022/07/09 10:14:59;;;;;;;3.70;1.27;;;21.40;88.60;21.70;101367.00;;;;4891163;28;101888;-60
2022/07/09 10:17:27;;;;;;;2.70;0.90;;;21.50;88.70;21.70;101363.00;;;;4892220;28;100983;-61
2022/07/09 10:19:56;;;;;;;1.33;1.05;;;21.50;88.00;21.50;101355.00;;;;4891642;28;92929;-61
2022/07/09 10:22:35;;;;;;;3.63;1.10;;;21.40;87.80;21.30;101359.00;;;;4891797;28;93076;-61
2022/07/09 10:25:01;;;;;;;0.73;0.73;;;21.20;88.30;21.30;101356.00;;;;4890360;28;94436;-61
2022/07/09 10:27:26;;;;;;;0.82;0.70;;;21.10;89.20;21.30;101359.00;;;;4891957;28;92813;-61
2022/07/09 10:29:59;;;;;;;2.22;0.50;;;21.10;89.90;21.30;101360.00;;;;4894901;28;108753;-62
2022/07/09 10:32:30;;;;;;;1.70;1.00;;;21.20;89.80;21.20;101356.00;;;;4890835;28;93583;-61
2022/07/09 10:34:59;;;;;;;1.17;0.68;;;21.00;89.40;21.10;101347.00;;;;4890215;28;102300;-61
2022/07/09 10:37:41;;;;;;;0.35;0.35;;;21.00;90.00;21.20;101351.00;;;;4891634;28;93044;-61
2022/07/09 10:40:21;;;;;;;1.52;1.10;;;21.00;90.10;21.10;101346.00;;;;4891689;28;92822;-60
2022/07/09 10:43:02;;;;;;;1.02;0.95;;;20.90;90.00;21.10;101344.00;;;;4891877;28;93415;-60